createdAt,value
2016-09-12T00:01:48.013Z,67.39
2016-09-12T00:02:26.924Z,67.39
2016-09-12T00:02:59.814Z,67.39
2016-09-12T00:03:43.165Z,67.40
2016-09-12T00:04:44.545Z,66.38
2016-09-12T00:05:40.413Z,67.14
2016-09-12T00:06:44.296Z,67.24
2016-09-12T00:07:58.608Z,67.30
2016-09-12T00:08:39.914Z,67.37
2016-09-12T00:09:42.630Z,67.34
2016-09-12T00:10:43.313Z,66.28
2016-09-12T00:11:40.007Z,66.06
2016-09-12T00:12:43.874Z,65.99
2016-09-12T00:13:38.411Z,65.90
2016-09-12T00:14:39.395Z,65.87
2016-09-12T00:15:49.033Z,65.81
2016-09-12T00:16:44.424Z,65.87
2016-09-12T00:17:43.554Z,65.74
2016-09-12T00:18:50.048Z,65.83
2016-09-12T00:19:40.725Z,65.88
2016-09-12T00:20:43.763Z,66.83
2016-09-12T00:21:44.567Z,67.05
2016-09-12T00:22:48.702Z,67.17
2016-09-12T00:23:39.570Z,67.25
2016-09-12T00:24:44.310Z,67.28
2016-09-12T00:25:39.635Z,67.26
2016-09-12T00:26:49.390Z,67.29
2016-09-12T00:27:37.757Z,67.29
2016-09-12T00:28:43.736Z,67.27
2016-09-12T00:29:43.385Z,67.30
2016-09-12T00:31:00.937Z,67.34
2016-09-12T00:31:49.492Z,67.33
2016-09-12T00:32:44.838Z,67.36
2016-09-12T00:33:29.956Z,67.35
2016-09-12T00:34:48.948Z,67.40
2016-09-12T00:36:00.043Z,67.36
2016-09-12T00:36:29.102Z,67.38
2016-09-12T00:38:12.666Z,67.37
2016-09-12T00:38:39.743Z,67.38
2016-09-12T00:39:45.888Z,67.37
2016-09-12T00:40:45.674Z,67.35
2016-09-12T00:41:39.698Z,67.37
2016-09-12T00:42:37.950Z,67.37
2016-09-12T00:43:47.625Z,67.34
2016-09-12T00:44:43.350Z,67.37
2016-09-12T00:45:44.930Z,67.35
2016-09-12T00:46:43.952Z,67.38
2016-09-12T00:47:37.376Z,67.36
2016-09-12T00:48:44.902Z,67.35
2016-09-12T00:49:50.024Z,67.35
2016-09-12T00:50:32.565Z,67.38
2016-09-12T00:51:44.755Z,67.36
2016-09-12T00:52:48.795Z,67.37
2016-09-12T00:54:06.908Z,67.37
2016-09-12T00:54:39.591Z,67.37
2016-09-12T00:55:33.160Z,67.36
2016-09-12T00:56:49.030Z,67.36
2016-09-12T00:57:45.165Z,67.35
2016-09-12T00:58:38.211Z,67.35
2016-09-12T00:59:39.237Z,67.36
2016-09-12T01:00:51.299Z,67.36
2016-09-12T01:01:44.628Z,67.33
2016-09-12T01:02:44.580Z,67.35
2016-09-12T01:03:39.198Z,67.36
2016-09-12T01:04:46.843Z,67.36
2016-09-12T01:05:44.911Z,67.37
2016-09-12T01:06:44.560Z,67.38
2016-09-12T01:07:39.052Z,67.38
2016-09-12T01:08:49.431Z,67.39
2016-09-12T01:09:49.774Z,67.39
2016-09-12T01:10:53.630Z,67.40
2016-09-12T01:11:49.773Z,67.37
2016-09-12T01:12:45.571Z,67.36
2016-09-12T01:13:48.730Z,67.36
2016-09-12T01:14:52.613Z,67.36
2016-09-12T01:15:55.008Z,67.38
2016-09-12T01:16:38.609Z,67.37
2016-09-12T01:17:45.193Z,67.39
2016-09-12T01:18:54.092Z,67.36
2016-09-12T01:20:11.382Z,67.38
2016-09-12T01:20:38.935Z,67.41
2016-09-12T01:21:43.900Z,67.22
2016-09-12T01:22:34.283Z,66.29
2016-09-12T01:23:48.891Z,66.08
2016-09-12T01:24:49.147Z,65.98
2016-09-12T01:25:37.455Z,66.32
2016-09-12T01:26:36.090Z,66.95
2016-09-12T01:27:47.345Z,67.16
2016-09-12T01:28:14.346Z,67.26
2016-09-12T01:29:49.861Z,67.31
2016-09-12T01:30:40.306Z,67.32
2016-09-12T01:31:28.163Z,67.33
2016-09-12T01:32:39.954Z,67.35
2016-09-12T01:33:38.104Z,67.36
2016-09-12T01:34:43.689Z,67.36
2016-09-12T01:35:50.162Z,67.36
2016-09-12T01:36:44.064Z,67.40
2016-09-12T01:37:33.940Z,67.38
2016-09-12T01:38:47.468Z,67.40
2016-09-12T01:39:44.063Z,67.40
2016-09-12T01:40:47.924Z,67.41
2016-09-12T01:41:44.532Z,67.35
2016-09-12T01:42:38.333Z,66.70
2016-09-12T01:43:38.372Z,67.20
2016-09-12T01:44:39.728Z,67.32
2016-09-12T01:45:43.935Z,67.36
2016-09-12T01:46:34.853Z,67.39
2016-09-12T01:47:49.725Z,67.40
2016-09-12T01:48:39.797Z,67.41
2016-09-12T01:49:39.605Z,67.41
2016-09-12T01:50:43.882Z,67.43
2016-09-12T01:51:44.302Z,67.42
2016-09-12T01:52:51.949Z,67.40
2016-09-12T01:53:45.795Z,67.42
2016-09-12T01:54:50.574Z,67.41
2016-09-12T01:55:45.030Z,67.38
2016-09-12T01:56:48.302Z,67.38
2016-09-12T01:57:50.629Z,67.39
2016-09-12T01:58:49.984Z,67.39
2016-09-12T01:59:49.128Z,67.37
2016-09-12T02:00:44.997Z,67.35
2016-09-12T02:01:34.256Z,67.39
2016-09-12T02:02:49.595Z,67.40
2016-09-12T02:03:37.144Z,67.38
2016-09-12T02:04:44.780Z,67.40
2016-09-12T02:05:45.386Z,67.39
2016-09-12T02:06:50.229Z,67.39
2016-09-12T02:08:00.071Z,67.38
2016-09-12T02:08:37.274Z,67.39
2016-09-12T02:09:39.393Z,67.39
2016-09-12T02:10:43.651Z,67.39
2016-09-12T02:11:43.045Z,67.39
2016-09-12T02:12:45.492Z,67.38
2016-09-12T02:14:01.094Z,67.39
2016-09-12T02:14:45.429Z,67.35
2016-09-12T02:15:24.106Z,67.32
2016-09-12T02:16:33.813Z,67.34
2016-09-12T02:17:44.854Z,67.35
2016-09-12T02:18:44.973Z,67.34
2016-09-12T02:19:41.735Z,67.35
2016-09-12T02:20:48.429Z,67.34
2016-09-12T02:21:43.343Z,67.34
2016-09-12T02:22:39.554Z,67.32
2016-09-12T02:23:48.303Z,67.33
2016-09-12T02:24:50.807Z,67.30
2016-09-12T02:25:39.896Z,67.30
2016-09-12T02:26:39.832Z,67.30
2016-09-12T02:27:43.673Z,67.30
2016-09-12T02:28:51.129Z,67.30
2016-09-12T02:29:45.063Z,67.25
2016-09-12T02:30:43.198Z,67.27
2016-09-12T02:31:49.682Z,67.27
2016-09-12T02:32:43.679Z,67.27
2016-09-12T02:33:34.964Z,67.25
2016-09-12T02:34:54.631Z,67.26
2016-09-12T02:35:48.900Z,67.27
2016-09-12T02:36:38.435Z,67.25
2016-09-12T02:37:44.223Z,67.28
2016-09-12T02:38:50.180Z,67.25
2016-09-12T02:39:39.497Z,67.26
2016-09-12T02:40:39.652Z,67.25
2016-09-12T02:41:49.249Z,67.25
2016-09-12T02:42:44.394Z,67.25
2016-09-12T02:43:45.575Z,67.26
2016-09-12T02:44:47.811Z,67.29
2016-09-12T02:45:50.339Z,67.23
2016-09-12T02:46:39.348Z,67.24
2016-09-12T02:47:44.212Z,67.24
2016-09-12T02:48:33.964Z,67.20
2016-09-12T02:49:38.713Z,67.22
2016-09-12T02:50:35.233Z,67.22
2016-09-12T02:51:33.294Z,67.21
2016-09-12T02:52:43.396Z,67.20
2016-09-12T02:53:42.483Z,67.21
2016-09-12T02:54:16.409Z,67.20
2016-09-12T02:55:45.973Z,67.20
2016-09-12T02:56:48.621Z,67.17
2016-09-12T02:57:48.856Z,67.19
2016-09-12T02:58:36.486Z,67.18
2016-09-12T02:59:43.194Z,67.18
2016-09-12T03:00:38.477Z,67.19
2016-09-12T03:01:43.954Z,67.21
2016-09-12T03:02:42.072Z,67.17
2016-09-12T03:03:31.136Z,67.18
2016-09-12T03:04:49.101Z,67.19
2016-09-12T03:05:47.442Z,67.18
2016-09-12T03:07:17.648Z,67.17
2016-09-12T03:07:43.201Z,67.17
2016-09-12T03:08:43.025Z,67.18
2016-09-12T03:09:38.182Z,67.16
2016-09-12T03:10:33.924Z,67.16
2016-09-12T03:11:19.772Z,67.18
2016-09-12T03:12:35.129Z,67.17
2016-09-12T03:13:42.796Z,67.17
2016-09-12T03:14:50.362Z,67.19
2016-09-12T03:15:45.414Z,67.18
2016-09-12T03:16:40.679Z,67.21
2016-09-12T03:17:44.335Z,67.23
2016-09-12T03:18:45.428Z,67.22
2016-09-12T03:19:39.065Z,67.23
2016-09-12T03:20:48.836Z,67.23
2016-09-12T03:21:46.359Z,67.24
2016-09-12T03:22:49.137Z,67.23
2016-09-12T03:23:47.499Z,67.22
2016-09-12T03:24:49.320Z,67.22
2016-09-12T03:26:00.542Z,67.24
2016-09-12T03:26:59.284Z,67.23
2016-09-12T03:27:42.439Z,67.23
2016-09-12T03:28:48.938Z,67.25
2016-09-12T03:29:32.326Z,67.23
2016-09-12T03:30:38.788Z,67.24
2016-09-12T03:31:50.452Z,67.20
2016-09-12T03:32:46.382Z,67.21
2016-09-12T03:33:45.647Z,67.23
2016-09-12T03:34:39.224Z,67.23
2016-09-12T03:35:51.624Z,67.22
2016-09-12T03:36:39.716Z,67.21
2016-09-12T03:37:43.036Z,67.21
2016-09-12T03:38:38.808Z,67.24
2016-09-12T03:39:59.888Z,67.25
2016-09-12T03:40:38.524Z,67.20
2016-09-12T03:41:49.631Z,67.22
2016-09-12T03:42:39.932Z,67.22
2016-09-12T03:43:38.932Z,67.21
2016-09-12T03:44:56.505Z,67.18
2016-09-12T03:46:01.005Z,67.22
2016-09-12T03:46:38.149Z,67.21
2016-09-12T03:47:43.215Z,67.22
2016-09-12T03:48:48.766Z,66.15
2016-09-12T03:49:37.932Z,65.87
2016-09-12T03:50:51.309Z,65.81
2016-09-12T03:51:37.584Z,66.75
2016-09-12T03:52:50.955Z,66.96
2016-09-12T03:53:59.482Z,67.04
2016-09-12T03:54:39.920Z,67.06
2016-09-12T03:55:43.303Z,67.11
2016-09-12T03:56:48.943Z,67.10
2016-09-12T03:57:43.467Z,67.13
2016-09-12T03:58:44.682Z,67.12
2016-09-12T03:59:42.435Z,67.11
2016-09-12T04:00:49.893Z,67.10
2016-09-12T04:01:38.523Z,67.10
2016-09-12T04:02:38.953Z,67.10
2016-09-12T04:03:49.921Z,67.09
2016-09-12T04:04:50.002Z,67.11
2016-09-12T04:05:45.190Z,67.17
2016-09-12T04:06:48.927Z,66.07
2016-09-12T04:07:44.013Z,65.85
2016-09-12T04:09:00.166Z,66.00
2016-09-12T04:09:54.382Z,66.70
2016-09-12T04:10:38.467Z,66.87
2016-09-12T04:11:38.153Z,66.94
2016-09-12T04:13:01.036Z,67.00
2016-09-12T04:13:48.953Z,67.01
2016-09-12T04:14:43.448Z,67.02
2016-09-12T04:16:00.030Z,67.01
2016-09-12T04:16:54.684Z,67.03
2016-09-12T04:17:45.611Z,67.03
2016-09-12T04:18:44.798Z,67.04
2016-09-12T04:19:55.893Z,67.06
2016-09-12T04:20:32.638Z,67.06
2016-09-12T04:22:15.015Z,67.06
2016-09-12T04:22:40.173Z,67.04
2016-09-12T04:23:13.871Z,67.05
2016-09-12T04:24:44.921Z,67.04
2016-09-12T04:26:08.166Z,67.05
2016-09-12T04:26:44.007Z,67.03
2016-09-12T04:27:49.534Z,67.03
2016-09-12T04:28:40.239Z,67.02
2016-09-12T04:29:44.471Z,67.02
2016-09-12T04:30:43.886Z,67.00
2016-09-12T04:32:06.724Z,67.01
2016-09-12T04:32:45.009Z,66.99
2016-09-12T04:33:44.341Z,67.00
2016-09-12T04:34:57.575Z,66.97
2016-09-12T04:35:39.008Z,66.96
2016-09-12T04:36:39.067Z,66.96
2016-09-12T04:37:38.014Z,66.93
2016-09-12T04:38:50.786Z,66.96
2016-09-12T04:39:45.344Z,66.92
2016-09-12T04:40:39.390Z,66.93
2016-09-12T04:41:44.066Z,66.93
2016-09-12T04:42:42.548Z,66.92
2016-09-12T04:43:50.658Z,66.93
2016-09-12T04:45:40.114Z,66.92
2016-09-12T04:46:49.511Z,66.92
2016-09-12T04:47:45.569Z,66.92
2016-09-12T04:48:38.676Z,66.92
2016-09-12T04:49:34.326Z,66.92
2016-09-12T04:50:44.991Z,66.88
2016-09-12T04:51:38.740Z,66.87
2016-09-12T04:52:43.606Z,66.91
2016-09-12T04:53:50.020Z,66.93
2016-09-12T04:54:33.853Z,66.87
2016-09-12T04:55:49.910Z,66.81
2016-09-12T04:56:44.125Z,66.84
2016-09-12T04:57:48.471Z,66.87
2016-09-12T04:58:46.049Z,66.88
2016-09-12T04:59:49.389Z,66.89
2016-09-12T05:00:33.836Z,66.91
2016-09-12T05:01:46.235Z,66.97
2016-09-12T05:02:41.931Z,66.98
2016-09-12T05:03:45.307Z,66.89
2016-09-12T05:04:43.117Z,66.83
2016-09-12T05:05:58.357Z,66.87
2016-09-12T05:06:47.834Z,66.99
2016-09-12T05:07:44.393Z,67.03
2016-09-12T05:08:47.602Z,67.03
2016-09-12T05:10:02.321Z,66.92
2016-09-12T05:10:33.103Z,66.90
2016-09-12T05:11:44.874Z,66.87
2016-09-12T05:12:50.851Z,66.89
2016-09-12T05:13:34.891Z,66.89
2016-09-12T05:14:39.847Z,66.98
2016-09-12T05:15:50.675Z,66.99
2016-09-12T05:16:51.717Z,66.96
2016-09-12T05:18:00.055Z,67.08
2016-09-12T05:18:44.045Z,66.88
2016-09-12T05:19:59.896Z,66.27
2016-09-12T05:20:45.855Z,66.16
2016-09-12T05:21:46.262Z,65.53
2016-09-12T05:22:49.595Z,65.44
2016-09-12T05:23:38.966Z,65.69
2016-09-12T05:24:32.771Z,65.05
2016-09-12T05:25:29.169Z,65.32
2016-09-12T05:26:45.761Z,65.71
2016-09-12T05:27:28.363Z,65.55
2016-09-12T05:28:27.681Z,65.99
2016-09-12T05:29:13.407Z,64.66
2016-09-12T05:30:44.536Z,65.52
2016-09-12T05:31:44.642Z,65.20
2016-09-12T05:32:49.720Z,65.46
2016-09-12T05:33:50.038Z,65.92
2016-09-12T05:34:44.944Z,65.44
2016-09-12T05:35:43.555Z,65.09
2016-09-12T05:36:59.435Z,64.65
2016-09-12T05:37:49.565Z,64.77
2016-09-12T05:38:39.877Z,64.33
2016-09-12T05:39:45.614Z,64.47
2016-09-12T05:40:42.487Z,64.87
2016-09-12T05:42:00.729Z,65.93
2016-09-12T05:42:13.667Z,65.48
2016-09-12T05:43:45.472Z,66.25
2016-09-12T05:44:38.463Z,65.88
2016-09-12T05:45:40.486Z,65.96
2016-09-12T05:46:41.310Z,65.92
2016-09-12T05:47:44.916Z,66.34
2016-09-12T05:48:49.603Z,66.36
2016-09-12T05:49:38.697Z,66.10
2016-09-12T05:50:44.227Z,64.59
2016-09-12T05:51:38.322Z,63.07
2016-09-12T05:53:00.879Z,62.98
2016-09-12T05:54:00.065Z,63.41
2016-09-12T05:54:50.173Z,63.56
2016-09-12T05:55:44.146Z,63.28
2016-09-12T05:56:45.148Z,63.82
2016-09-12T05:57:41.966Z,63.89
2016-09-12T05:58:45.098Z,63.87
2016-09-12T05:59:48.793Z,64.13
2016-09-12T06:00:39.305Z,64.11
2016-09-12T06:01:48.584Z,63.92
2016-09-12T06:02:47.729Z,63.91
2016-09-12T06:03:52.454Z,64.24
2016-09-12T06:05:02.173Z,64.03
2016-09-12T06:05:51.504Z,63.84
2016-09-12T06:06:48.737Z,64.05
2016-09-12T06:07:44.656Z,64.58
2016-09-12T06:08:49.423Z,64.63
2016-09-12T06:09:50.453Z,64.56
2016-09-12T06:10:34.164Z,64.54
2016-09-12T06:11:43.913Z,64.53
2016-09-12T06:12:39.083Z,64.62
2016-09-12T06:13:50.845Z,64.61
2016-09-12T06:14:46.464Z,64.58
2016-09-12T06:15:50.325Z,64.71
2016-09-12T06:16:45.359Z,64.70
2016-09-12T06:17:40.047Z,64.67
2016-09-12T06:18:45.154Z,64.61
2016-09-12T06:19:40.121Z,64.62
2016-09-12T06:21:15.195Z,64.64
2016-09-12T06:23:17.659Z,64.64
2016-09-12T06:24:46.012Z,63.59
2016-09-12T06:24:51.460Z,64.64
2016-09-12T06:25:14.945Z,63.37
2016-09-12T06:26:39.023Z,63.20
2016-09-12T06:27:49.548Z,63.16
2016-09-12T06:28:51.502Z,63.15
2016-09-12T06:29:51.409Z,63.18
2016-09-12T06:30:39.240Z,63.16
2016-09-12T06:31:37.815Z,63.14
2016-09-12T06:32:44.956Z,63.15
2016-09-12T06:33:38.906Z,64.13
2016-09-12T06:34:49.654Z,64.38
2016-09-12T06:35:43.204Z,64.48
2016-09-12T06:36:50.401Z,64.55
2016-09-12T06:37:44.746Z,64.62
2016-09-12T06:38:44.537Z,64.66
2016-09-12T06:39:49.922Z,64.63
2016-09-12T06:40:58.436Z,64.73
2016-09-12T07:11:49.271Z,64.78
2016-09-12T07:11:49.489Z,64.77
2016-09-12T07:11:49.557Z,64.73
2016-09-12T12:36:17.808Z,63.59
2016-09-12T12:36:33.105Z,63.58
2016-09-12T12:36:33.113Z,63.60
